Time;durP1;ratioP1;P1;durP2;ratioP2;P2;SDS_P1;SDS_P2;PMS_P1;PMS_P2;Temp;Humidity;BMP_temperature;BMP_pressure;BME280_temperature;BME280_humidity;BME280_pressure;Samples;Min_cycle;Max_cycle;Signal;HPM_P1;HPM_P2
2023/09/26 00:01:41;;;;;;;6.18;2.60;;;;;;;;;;5073976;28;20024;-90
2023/09/26 00:04:07;;;;;;;4.32;2.60;;;;;;;;;;5073892;28;20096;-90
2023/09/26 00:06:33;;;;;;;5.30;2.53;;;;;;;;;;5073135;28;20056;-91
2023/09/26 00:09:00;;;;;;;5.47;2.88;;;;;;;;;;5065112;28;20029;-90
2023/09/26 00:11:27;;;;;;;4.38;2.60;;;;;;;;;;5072993;28;20047;-89
2023/09/26 00:13:52;;;;;;;4.03;2.35;;;;;;;;;;5055438;28;20059;-89
2023/09/26 00:16:18;;;;;;;4.13;2.30;;;;;;;;;;5062288;28;20032;-90
2023/09/26 00:18:45;;;;;;;9.35;2.90;;;;;;;;;;5057601;28;20021;-90
2023/09/26 00:21:13;;;;;;;5.85;2.75;;;;;;;;;;5072723;28;20032;-90
2023/09/26 00:23:38;;;;;;;7.18;2.75;;;;;;;;;;5073189;28;20111;-90
2023/09/26 00:26:07;;;;;;;6.95;2.40;;;;;;;;;;5074563;28;20085;-90
2023/09/26 00:28:32;;;;;;;4.70;2.17;;;;;;;;;;5067552;28;20017;-90
2023/09/26 00:31:02;;;;;;;4.40;2.33;;;;;;;;;;5073578;28;20017;-89
2023/09/26 00:33:27;;;;;;;3.83;2.45;;;;;;;;;;5075061;28;20077;-90
2023/09/26 00:35:53;;;;;;;4.28;2.38;;;;;;;;;;5077016;28;20029;-92
2023/09/26 00:38:19;;;;;;;5.32;2.67;;;;;;;;;;5078343;28;20016;-92
2023/09/26 00:40:44;;;;;;;4.57;2.08;;;;;;;;;;5076055;28;20048;-91
2023/09/26 00:43:22;;;;;;;8.15;2.35;;;;;;;;;;5069334;28;20039;-92
2023/09/26 00:45:51;;;;;;;4.10;2.13;;;;;;;;;;5076332;28;20024;-91
2023/09/26 00:48:19;;;;;;;5.82;2.30;;;;;;;;;;5075192;28;20029;-92
2023/09/26 00:50:45;;;;;;;5.03;1.67;;;;;;;;;;5059799;28;20182;-92
2023/09/26 00:53:10;;;;;;;5.88;2.20;;;;;;;;;;5071618;28;20039;-92
2023/09/26 00:55:36;;;;;;;5.43;2.58;;;;;;;;;;5061899;28;20055;-91
2023/09/26 00:58:02;;;;;;;3.88;1.60;;;;;;;;;;5069807;28;20048;-91
2023/09/26 01:00:30;;;;;;;3.35;1.95;;;;;;;;;;5076934;28;20059;-92
2023/09/26 01:02:57;;;;;;;5.88;2.05;;;;;;;;;;5076827;28;20027;-92
2023/09/26 01:05:23;;;;;;;6.65;2.00;;;;;;;;;;5076884;28;20105;-92
2023/09/26 01:07:49;;;;;;;7.43;2.50;;;;;;;;;;5063483;28;20456;-91
2023/09/26 01:10:14;;;;;;;3.83;2.47;;;;;;;;;;5075203;28;20040;-91
2023/09/26 01:12:40;;;;;;;3.28;2.15;;;;;;;;;;5076547;28;20111;-91
2023/09/26 01:15:08;;;;;;;4.32;2.30;;;;;;;;;;5076694;28;20112;-91
2023/09/26 01:17:34;;;;;;;4.10;2.20;;;;;;;;;;5076046;28;20024;-92
2023/09/26 01:20:11;;;;;;;8.80;2.30;;;;;;;;;;5060052;28;20491;-92
2023/09/26 01:22:38;;;;;;;5.20;1.98;;;;;;;;;;5075723;28;20383;-92
2023/09/26 01:25:04;;;;;;;5.55;2.20;;;;;;;;;;5075913;28;20025;-92
2023/09/26 01:27:29;;;;;;;3.67;2.00;;;;;;;;;;5075882;28;20020;-92
2023/09/26 01:29:54;;;;;;;3.92;2.17;;;;;;;;;;5075837;28;20048;-92
2023/09/26 01:32:20;;;;;;;4.90;2.45;;;;;;;;;;5075905;28;20028;-91
2023/09/26 01:34:45;;;;;;;4.30;2.10;;;;;;;;;;5077231;28;20051;-92
2023/09/26 01:37:10;;;;;;;5.85;2.38;;;;;;;;;;5073748;28;20032;-92
2023/09/26 01:39:38;;;;;;;4.40;2.10;;;;;;;;;;5064765;28;20024;-92
2023/09/26 01:42:04;;;;;;;11.70;2.45;;;;;;;;;;5066118;28;20021;-91
2023/09/26 01:44:29;;;;;;;6.53;2.58;;;;;;;;;;5070817;28;20043;-92
2023/09/26 01:46:54;;;;;;;6.00;2.40;;;;;;;;;;5069854;28;20013;-92
2023/09/26 01:49:23;;;;;;;3.30;1.55;;;;;;;;;;5065456;28;20124;-92
2023/09/26 01:51:48;;;;;;;6.30;2.20;;;;;;;;;;5077971;28;20112;-92
2023/09/26 01:54:14;;;;;;;4.15;2.15;;;;;;;;;;5077655;28;20043;-92
2023/09/26 01:56:39;;;;;;;5.38;2.10;;;;;;;;;;5073846;28;20443;-92
2023/09/26 01:59:05;;;;;;;3.97;2.08;;;;;;;;;;5068800;28;20017;-92
2023/09/26 02:01:30;;;;;;;6.13;2.30;;;;;;;;;;5077726;28;20072;-91
2023/09/26 02:03:56;;;;;;;5.55;2.33;;;;;;;;;;5069626;28;20029;-91
2023/09/26 02:06:21;;;;;;;3.00;2.10;;;;;;;;;;5069706;28;20482;-92
2023/09/26 02:08:47;;;;;;;5.03;2.20;;;;;;;;;;5062773;28;20069;-92
2023/09/26 02:11:12;;;;;;;4.20;2.17;;;;;;;;;;5071500;28;20027;-92
2023/09/26 02:13:37;;;;;;;5.20;2.15;;;;;;;;;;5074939;28;20056;-92
2023/09/26 02:16:03;;;;;;;9.73;2.90;;;;;;;;;;5070219;28;20123;-92
2023/09/26 02:18:29;;;;;;;5.55;2.60;;;;;;;;;;5068629;28;20020;-92
2023/09/26 02:20:54;;;;;;;7.25;2.80;;;;;;;;;;5061007;28;20009;-92
2023/09/26 02:23:19;;;;;;;5.22;2.72;;;;;;;;;;5063667;28;20021;-92
2023/09/26 02:25:51;;;;;;;5.80;2.55;;;;;;;;;;5070213;28;20020;-91
2023/09/26 02:28:16;;;;;;;5.10;2.50;;;;;;;;;;5059745;28;20435;-91
2023/09/26 02:30:42;;;;;;;8.38;2.83;;;;;;;;;;5107553;28;20078;-92
2023/09/26 02:33:07;;;;;;;6.43;2.97;;;;;;;;;;5075213;28;20039;-92
2023/09/26 02:35:33;;;;;;;5.20;2.88;;;;;;;;;;5074461;28;20024;-92
2023/09/26 02:37:58;;;;;;;7.93;3.35;;;;;;;;;;5074871;28;20025;-92
2023/09/26 02:40:23;;;;;;;5.65;2.83;;;;;;;;;;5060538;28;20044;-92
2023/09/26 02:42:50;;;;;;;6.75;2.75;;;;;;;;;;5077049;28;20013;-91
2023/09/26 02:45:15;;;;;;;8.13;3.00;;;;;;;;;;5076385;28;20432;-92
2023/09/26 02:47:41;;;;;;;5.70;2.92;;;;;;;;;;5074142;28;20021;-92
2023/09/26 02:50:07;;;;;;;7.07;3.08;;;;;;;;;;5063353;28;20039;-92
2023/09/26 02:52:35;;;;;;;5.25;3.25;;;;;;;;;;5073741;28;20020;-91
2023/09/26 02:55:03;;;;;;;8.63;3.17;;;;;;;;;;5077173;28;20468;-91
2023/09/26 02:57:28;;;;;;;6.45;3.15;;;;;;;;;;5075590;28;20027;-91
2023/09/26 02:59:57;;;;;;;8.85;3.47;;;;;;;;;;5064908;28;20017;-92
2023/09/26 03:02:23;;;;;;;5.53;3.08;;;;;;;;;;5077943;28;20020;-91
2023/09/26 03:04:48;;;;;;;8.82;3.83;;;;;;;;;;5080442;28;20047;-91
2023/09/26 03:07:14;;;;;;;14.00;3.00;;;;;;;;;;5075733;28;20017;-91
2023/09/26 03:09:40;;;;;;;7.03;3.42;;;;;;;;;;5075761;28;20036;-92
2023/09/26 03:12:06;;;;;;;9.63;3.60;;;;;;;;;;5065365;28;20028;-92
2023/09/26 03:14:32;;;;;;;6.10;3.60;;;;;;;;;;5070603;28;20027;-92
2023/09/26 03:16:57;;;;;;;11.05;3.33;;;;;;;;;;5064355;28;20444;-92
2023/09/26 03:19:23;;;;;;;5.13;3.05;;;;;;;;;;5074468;28;20249;-91
2023/09/26 03:21:54;;;;;;;6.72;3.65;;;;;;;;;;5060826;28;20400;-91
2023/09/26 03:24:24;;;;;;;5.67;3.60;;;;;;;;;;5074382;28;20430;-91
2023/09/26 03:26:49;;;;;;;9.43;3.63;;;;;;;;;;5072528;28;20024;-92
2023/09/26 03:29:17;;;;;;;11.98;3.50;;;;;;;;;;5062808;28;20036;-92
2023/09/26 03:31:44;;;;;;;5.72;3.17;;;;;;;;;;5057136;28;20103;-91
2023/09/26 03:34:10;;;;;;;7.90;3.45;;;;;;;;;;5073663;28;20436;-92
2023/09/26 03:36:37;;;;;;;7.10;3.58;;;;;;;;;;5071393;28;20059;-91
2023/09/26 03:39:03;;;;;;;8.57;3.53;;;;;;;;;;5073676;28;20012;-91
2023/09/26 03:41:31;;;;;;;6.80;3.45;;;;;;;;;;5073214;28;20108;-91
2023/09/26 03:43:57;;;;;;;7.45;3.97;;;;;;;;;;5073212;28;20077;-92
2023/09/26 03:46:22;;;;;;;11.15;3.60;;;;;;;;;;5066124;28;20024;-91
2023/09/26 03:48:48;;;;;;;7.10;3.55;;;;;;;;;;5058811;28;20032;-91
2023/09/26 03:51:14;;;;;;;7.80;3.70;;;;;;;;;;5075317;28;20032;-91
2023/09/26 03:53:40;;;;;;;7.75;3.90;;;;;;;;;;5059715;28;20020;-91
2023/09/26 03:56:06;;;;;;;5.82;3.25;;;;;;;;;;5073022;28;20020;-91
2023/09/26 03:58:35;;;;;;;9.43;3.72;;;;;;;;;;5108556;28;20042;-91
2023/09/26 04:01:11;;;;;;;5.70;3.35;;;;;;;;;;5063289;28;20036;-91
2023/09/26 04:03:37;;;;;;;7.50;3.70;;;;;;;;;;5075852;28;20066;-91
2023/09/26 04:06:06;;;;;;;8.52;3.97;;;;;;;;;;5079243;28;20031;-91
2023/09/26 04:08:31;;;;;;;8.05;3.80;;;;;;;;;;5067668;28;20028;-91
2023/09/26 04:10:57;;;;;;;6.38;3.65;;;;;;;;;;5081354;28;20013;-91
2023/09/26 04:13:23;;;;;;;5.45;3.58;;;;;;;;;;5069084;28;20460;-92
2023/09/26 04:15:49;;;;;;;7.18;3.72;;;;;;;;;;5054762;28;20021;-91
2023/09/26 04:18:17;;;;;;;5.80;3.72;;;;;;;;;;5078590;28;20047;-91
2023/09/26 04:20:45;;;;;;;7.63;3.83;;;;;;;;;;5075187;28;20070;-91
2023/09/26 04:23:10;;;;;;;10.77;3.78;;;;;;;;;;5054019;28;20396;-91
2023/09/26 04:25:36;;;;;;;6.07;3.47;;;;;;;;;;5065804;28;20032;-91
2023/09/26 04:28:04;;;;;;;10.35;4.80;;;;;;;;;;5071745;28;20021;-92
2023/09/26 04:30:30;;;;;;;7.35;4.22;;;;;;;;;;5062738;28;20115;-92
2023/09/26 04:32:55;;;;;;;9.13;3.92;;;;;;;;;;5068628;28;20052;-91
2023/09/26 04:35:21;;;;;;;11.05;4.07;;;;;;;;;;5074412;28;20023;-91
2023/09/26 04:37:46;;;;;;;7.32;3.90;;;;;;;;;;5072755;28;20056;-91
2023/09/26 04:40:11;;;;;;;11.85;4.22;;;;;;;;;;5072364;28;20024;-92
2023/09/26 04:42:48;;;;;;;8.38;4.93;;;;;;;;;;5064364;28;20025;-91
2023/09/26 04:45:13;;;;;;;13.88;4.32;;;;;;;;;;5068317;28;20490;-91
2023/09/26 04:47:38;;;;;;;9.80;5.03;;;;;;;;;;5068193;28;20016;-91
2023/09/26 04:50:04;;;;;;;7.70;4.28;;;;;;;;;;5072634;28;20029;-91
2023/09/26 04:52:30;;;;;;;7.72;4.63;;;;;;;;;;5072030;28;20107;-91
2023/09/26 04:54:55;;;;;;;6.53;4.03;;;;;;;;;;5072784;28;20109;-91
2023/09/26 04:57:20;;;;;;;9.77;4.53;;;;;;;;;;5073004;28;20027;-92
2023/09/26 04:59:46;;;;;;;6.95;4.25;;;;;;;;;;5074824;28;20059;-91
2023/09/26 05:02:11;;;;;;;7.68;4.03;;;;;;;;;;5068017;28;20035;-91
2023/09/26 05:04:37;;;;;;;7.25;3.97;;;;;;;;;;5071547;28;20013;-91
2023/09/26 05:07:07;;;;;;;9.75;4.43;;;;;;;;;;5077173;28;20060;-91
2023/09/26 05:09:33;;;;;;;7.25;4.13;;;;;;;;;;5076785;28;20081;-91
2023/09/26 05:11:58;;;;;;;8.32;4.45;;;;;;;;;;5078783;28;20040;-89
2023/09/26 05:14:24;;;;;;;6.15;3.78;;;;;;;;;;5078352;28;20008;-89
2023/09/26 05:16:49;;;;;;;6.53;3.97;;;;;;;;;;5078367;28;20017;-89
2023/09/26 05:19:15;;;;;;;7.40;4.10;;;;;;;;;;5079762;28;20054;-90
2023/09/26 05:21:41;;;;;;;7.78;3.70;;;;;;;;;;5077596;28;20020;-90
2023/09/26 05:24:07;;;;;;;9.43;4.75;;;;;;;;;;5072676;28;20036;-90
2023/09/26 05:26:33;;;;;;;8.15;4.65;;;;;;;;;;5075377;28;20052;-89
2023/09/26 05:28:58;;;;;;;9.80;5.32;;;;;;;;;;5072193;28;20369;-90
2023/09/26 05:31:31;;;;;;;8.18;4.30;;;;;;;;;;5072566;28;20446;-89
2023/09/26 05:33:57;;;;;;;11.88;4.55;;;;;;;;;;5072745;28;20460;-89
2023/09/26 05:36:22;;;;;;;11.60;4.38;;;;;;;;;;5072408;28;20020;-90
2023/09/26 05:38:48;;;;;;;12.80;4.45;;;;;;;;;;5072740;28;20017;-89
2023/09/26 05:41:13;;;;;;;8.43;4.38;;;;;;;;;;5061660;28;20029;-89
2023/09/26 05:43:41;;;;;;;7.10;4.10;;;;;;;;;;5068907;28;20029;-89
2023/09/26 05:46:06;;;;;;;8.32;4.00;;;;;;;;;;5067265;28;20405;-89
2023/09/26 05:48:31;;;;;;;6.95;4.22;;;;;;;;;;5074260;28;20027;-89
2023/09/26 05:50:57;;;;;;;8.32;4.15;;;;;;;;;;5075693;28;20028;-89
2023/09/26 05:53:22;;;;;;;11.15;4.40;;;;;;;;;;5075076;28;20046;-89
2023/09/26 05:55:53;;;;;;;6.68;4.18;;;;;;;;;;5056610;28;20138;-89
2023/09/26 05:58:21;;;;;;;6.97;3.95;;;;;;;;;;5055473;28;20040;-90
2023/09/26 06:00:47;;;;;;;6.93;3.78;;;;;;;;;;5072944;28;20036;-90
2023/09/26 06:03:14;;;;;;;9.85;4.65;;;;;;;;;;5075678;28;20379;-90
2023/09/26 06:05:39;;;;;;;10.32;5.47;;;;;;;;;;5074501;28;20035;-90
2023/09/26 06:08:08;;;;;;;10.27;4.68;;;;;;;;;;5063580;28;20187;-90
2023/09/26 06:10:33;;;;;;;7.95;4.05;;;;;;;;;;5075426;28;20029;-90
2023/09/26 06:13:01;;;;;;;9.30;4.30;;;;;;;;;;5069631;28;20085;-90
2023/09/26 06:15:27;;;;;;;6.82;3.75;;;;;;;;;;5074317;28;20021;-90
2023/09/26 06:18:02;;;;;;;8.38;4.35;;;;;;;;;;5076300;28;20024;-91
2023/09/26 06:20:31;;;;;;;8.02;4.10;;;;;;;;;;5072147;28;20021;-91
2023/09/26 06:22:57;;;;;;;6.10;3.85;;;;;;;;;;5071689;28;20028;-90
2023/09/26 06:25:23;;;;;;;11.75;4.60;;;;;;;;;;5067963;28;20021;-91
2023/09/26 06:27:49;;;;;;;8.40;4.10;;;;;;;;;;5077297;28;20043;-91
2023/09/26 06:30:14;;;;;;;9.13;3.63;;;;;;;;;;5075372;28;20024;-90
2023/09/26 06:32:40;;;;;;;7.60;4.00;;;;;;;;;;5075701;28;20055;-91
2023/09/26 06:35:06;;;;;;;6.68;3.20;;;;;;;;;;5075405;28;20082;-91
2023/09/26 06:37:32;;;;;;;5.70;3.47;;;;;;;;;;5075131;28;20039;-89
2023/09/26 06:40:00;;;;;;;7.10;3.33;;;;;;;;;;5063948;28;20090;-91
2023/09/26 06:42:26;;;;;;;7.18;3.72;;;;;;;;;;5073840;28;20629;-91
2023/09/26 06:44:54;;;;;;;9.32;3.60;;;;;;;;;;5074045;28;20489;-91
2023/09/26 06:47:19;;;;;;;8.10;3.47;;;;;;;;;;5074504;28;20031;-91
2023/09/26 06:49:46;;;;;;;7.43;3.75;;;;;;;;;;5074537;28;20065;-90
2023/09/26 06:52:12;;;;;;;6.75;3.13;;;;;;;;;;5074440;28;20020;-90
2023/09/26 06:54:37;;;;;;;9.27;3.40;;;;;;;;;;5074581;28;20027;-90
2023/09/26 06:57:03;;;;;;;6.43;3.25;;;;;;;;;;5073362;28;20035;-91
2023/09/26 06:59:28;;;;;;;6.53;2.88;;;;;;;;;;5072462;28;20464;-91
2023/09/26 07:01:53;;;;;;;13.60;3.17;;;;;;;;;;5069866;28;20027;-91
2023/09/26 07:04:19;;;;;;;6.75;2.90;;;;;;;;;;5073638;28;20103;-91
2023/09/26 07:06:45;;;;;;;5.95;3.05;;;;;;;;;;5074238;28;20028;-91
2023/09/26 07:09:12;;;;;;;11.75;3.50;;;;;;;;;;5074205;28;20066;-91
2023/09/26 07:11:38;;;;;;;14.23;3.63;;;;;;;;;;5074995;28;20027;-91
2023/09/26 07:14:04;;;;;;;7.80;3.22;;;;;;;;;;5074271;28;20410;-91
2023/09/26 07:16:33;;;;;;;5.72;2.80;;;;;;;;;;5073940;28;20036;-91
2023/09/26 07:18:58;;;;;;;7.18;3.00;;;;;;;;;;5068525;28;20029;-91
2023/09/26 07:21:24;;;;;;;7.30;3.20;;;;;;;;;;5069630;28;20033;-91
2023/09/26 07:23:49;;;;;;;6.78;2.75;;;;;;;;;;5063016;28;20027;-90
2023/09/26 07:26:20;;;;;;;6.20;2.85;;;;;;;;;;5059045;28;20024;-91
2023/09/26 07:28:46;;;;;;;6.30;3.33;;;;;;;;;;5073129;28;20526;-90
2023/09/26 07:31:16;;;;;;;8.77;3.13;;;;;;;;;;5077836;28;20028;-90
2023/09/26 07:33:42;;;;;;;4.47;2.80;;;;;;;;;;5077761;28;20024;-90
2023/09/26 07:36:08;;;;;;;4.53;2.45;;;;;;;;;;5069042;28;20028;-90
2023/09/26 07:38:37;;;;;;;10.80;3.00;;;;;;;;;;5065029;28;20103;-90
2023/09/26 07:41:03;;;;;;;6.65;3.17;;;;;;;;;;5072579;28;20021;-91
2023/09/26 07:43:32;;;;;;;4.57;2.60;;;;;;;;;;5067627;28;20032;-90
2023/09/26 07:46:05;;;;;;;5.70;2.60;;;;;;;;;;5062763;28;20055;-89
2023/09/26 07:48:31;;;;;;;6.60;2.90;;;;;;;;;;5073580;28;20070;-90
2023/09/26 07:50:56;;;;;;;6.60;3.10;;;;;;;;;;5069823;28;20020;-89
2023/09/26 07:53:21;;;;;;;3.60;2.45;;;;;;;;;;5072348;28;20131;-87
2023/09/26 07:55:48;;;;;;;7.30;2.72;;;;;;;;;;5071299;28;20028;-87
2023/09/26 07:58:14;;;;;;;7.85;2.85;;;;;;;;;;5059035;28;20078;-87
2023/09/26 08:00:40;;;;;;;5.43;2.65;;;;;;;;;;5071047;28;20411;-88
2023/09/26 08:03:05;;;;;;;13.05;2.83;;;;;;;;;;5072423;28;20479;-88
2023/09/26 08:05:30;;;;;;;8.63;3.10;;;;;;;;;;5062021;28;20081;-87
2023/09/26 08:07:58;;;;;;;8.27;2.58;;;;;;;;;;5059056;28;20028;-87
2023/09/26 08:10:23;;;;;;;9.98;2.80;;;;;;;;;;5072769;28;20025;-87
2023/09/26 08:12:49;;;;;;;4.97;2.63;;;;;;;;;;5070051;28;20025;-87
2023/09/26 08:15:14;;;;;;;7.75;2.70;;;;;;;;;;5060957;28;20017;-87
2023/09/26 08:17:39;;;;;;;6.60;2.80;;;;;;;;;;5069740;28;20028;-88
2023/09/26 08:20:05;;;;;;;6.65;2.33;;;;;;;;;;5063754;28;20070;-88
2023/09/26 08:22:30;;;;;;;5.90;2.72;;;;;;;;;;5072867;28;20058;-89
2023/09/26 08:24:56;;;;;;;8.30;2.60;;;;;;;;;;5072532;28;20024;-87
2023/09/26 08:27:21;;;;;;;10.27;2.97;;;;;;;;;;5065900;28;20054;-88
2023/09/26 08:29:47;;;;;;;5.97;3.00;;;;;;;;;;5066761;28;20072;-87
2023/09/26 08:32:12;;;;;;;6.57;2.67;;;;;;;;;;5076243;28;20040;-86
2023/09/26 08:34:37;;;;;;;5.78;2.53;;;;;;;;;;5062017;28;20683;-88
2023/09/26 08:37:03;;;;;;;6.88;2.80;;;;;;;;;;5075125;28;20035;-87
2023/09/26 08:39:28;;;;;;;5.45;2.85;;;;;;;;;;5079245;28;20035;-87
2023/09/26 08:41:54;;;;;;;4.90;2.75;;;;;;;;;;5078792;28;20017;-87
2023/09/26 08:44:19;;;;;;;4.00;2.17;;;;;;;;;;5074011;28;20023;-87
2023/09/26 08:46:45;;;;;;;5.05;2.10;;;;;;;;;;5072609;28;20025;-87
2023/09/26 08:49:10;;;;;;;11.10;2.83;;;;;;;;;;5074255;28;20108;-86
2023/09/26 08:51:36;;;;;;;7.25;2.63;;;;;;;;;;5073042;28;20078;-87
2023/09/26 08:54:02;;;;;;;9.05;2.90;;;;;;;;;;5073337;28;20012;-87
2023/09/26 08:56:27;;;;;;;4.50;2.17;;;;;;;;;;5072468;28;20401;-87
2023/09/26 08:58:54;;;;;;;4.68;2.42;;;;;;;;;;5068570;28;20032;-87
2023/09/26 09:01:20;;;;;;;5.43;2.45;;;;;;;;;;5072566;28;20024;-87
2023/09/26 09:03:46;;;;;;;6.18;2.60;;;;;;;;;;5072969;28;20490;-88
2023/09/26 09:06:12;;;;;;;6.47;2.50;;;;;;;;;;5071404;28;20056;-88
2023/09/26 09:08:37;;;;;;;8.13;2.10;;;;;;;;;;5071812;28;20028;-87
2023/09/26 09:11:02;;;;;;;5.95;2.28;;;;;;;;;;5057875;28;20119;-88
2023/09/26 09:13:32;;;;;;;8.80;2.90;;;;;;;;;;5063479;28;20056;-88
2023/09/26 09:16:23;;;;;;;5.35;2.25;;;;;;;;;;5068934;28;20021;-88
2023/09/26 09:18:58;;;;;;;4.07;2.00;;;;;;;;;;5060675;28;20564;-88
2023/09/26 09:21:27;;;;;;;5.53;2.03;;;;;;;;;;5072762;28;20415;-87
2023/09/26 09:23:53;;;;;;;4.22;1.90;;;;;;;;;;5063632;28;20025;-87
2023/09/26 09:26:20;;;;;;;4.28;2.30;;;;;;;;;;5073688;28;20021;-86
2023/09/26 09:28:48;;;;;;;6.28;2.08;;;;;;;;;;5066056;28;20090;-87
2023/09/26 09:31:14;;;;;;;5.75;1.75;;;;;;;;;;5063852;28;20077;-87
2023/09/26 09:33:43;;;;;;;7.22;2.10;;;;;;;;;;5066176;28;20383;-88
2023/09/26 09:36:08;;;;;;;4.28;1.90;;;;;;;;;;5075847;28;20090;-88
2023/09/26 09:38:34;;;;;;;9.23;2.10;;;;;;;;;;5078976;28;20020;-88
2023/09/26 09:41:02;;;;;;;5.38;2.10;;;;;;;;;;5078691;28;20405;-88
2023/09/26 09:43:28;;;;;;;6.28;2.10;;;;;;;;;;5079710;28;20180;-88
2023/09/26 09:45:55;;;;;;;3.47;1.88;;;;;;;;;;5077630;28;20016;-88
2023/09/26 09:48:22;;;;;;;6.20;2.10;;;;;;;;;;5079831;28;20475;-88
2023/09/26 09:50:52;;;;;;;4.28;2.13;;;;;;;;;;5070276;28;20027;-87
2023/09/26 09:53:18;;;;;;;5.45;2.03;;;;;;;;;;5078499;28;20044;-88
2023/09/26 09:55:48;;;;;;;4.82;2.05;;;;;;;;;;5075848;28;20439;-87
2023/09/26 09:58:15;;;;;;;5.10;2.28;;;;;;;;;;5082407;28;20027;-87
2023/09/26 10:00:40;;;;;;;4.55;2.20;;;;;;;;;;5076737;28;20421;-88
2023/09/26 10:03:12;;;;;;;9.30;2.22;;;;;;;;;;5077209;28;20055;-88
2023/09/26 10:05:38;;;;;;;5.00;2.33;;;;;;;;;;5066349;28;20060;-87
2023/09/26 10:08:05;;;;;;;8.52;2.15;;;;;;;;;;5064717;28;20032;-88
2023/09/26 10:10:31;;;;;;;4.78;2.30;;;;;;;;;;5062795;28;20021;-88
2023/09/26 10:13:00;;;;;;;5.72;2.50;;;;;;;;;;5076916;28;20105;-88
2023/09/26 10:15:25;;;;;;;6.65;2.63;;;;;;;;;;5075521;28;20388;-88
2023/09/26 10:17:50;;;;;;;7.38;2.55;;;;;;;;;;5061464;28;20013;-88
2023/09/26 10:20:16;;;;;;;6.90;2.30;;;;;;;;;;5071490;28;20027;-88
2023/09/26 10:22:43;;;;;;;4.10;2.20;;;;;;;;;;5072682;28;20104;-88
2023/09/26 10:25:13;;;;;;;3.17;2.00;;;;;;;;;;5066424;28;20029;-88
2023/09/26 10:27:41;;;;;;;8.20;2.15;;;;;;;;;;5069654;28;20028;-88
2023/09/26 10:30:07;;;;;;;5.72;2.35;;;;;;;;;;5067512;28;20017;-88
2023/09/26 10:32:33;;;;;;;3.53;2.00;;;;;;;;;;5068162;28;20539;-88
2023/09/26 10:34:59;;;;;;;4.53;2.30;;;;;;;;;;5075949;28;20388;-87
2023/09/26 10:37:26;;;;;;;4.90;2.05;;;;;;;;;;5067162;28;20028;-87
2023/09/26 10:39:51;;;;;;;12.68;2.30;;;;;;;;;;5069877;28;20024;-88
2023/09/26 10:42:21;;;;;;;3.05;1.88;;;;;;;;;;5071093;28;20161;-88
2023/09/26 10:44:49;;;;;;;8.63;2.20;;;;;;;;;;5057961;28;20376;-88
2023/09/26 10:47:15;;;;;;;9.27;2.08;;;;;;;;;;5063128;28;20352;-88
2023/09/26 10:49:41;;;;;;;6.90;1.80;;;;;;;;;;5077167;28;20021;-88
2023/09/26 10:52:08;;;;;;;6.28;2.47;;;;;;;;;;5067116;28;20017;-88
2023/09/26 10:54:35;;;;;;;6.03;2.08;;;;;;;;;;5071240;28;20074;-87
2023/09/26 10:57:01;;;;;;;3.63;1.90;;;;;;;;;;5072322;28;20353;-88
2023/09/26 10:59:27;;;;;;;4.35;1.63;;;;;;;;;;5069184;28;20061;-88
2023/09/26 11:01:56;;;;;;;4.43;1.70;;;;;;;;;;5058375;28;20046;-88
2023/09/26 11:04:23;;;;;;;4.68;2.05;;;;;;;;;;5062606;28;20016;-87
2023/09/26 11:06:49;;;;;;;4.63;1.92;;;;;;;;;;5063278;28;20116;-88
2023/09/26 11:09:17;;;;;;;5.60;2.03;;;;;;;;;;5070688;28;20039;-87
2023/09/26 11:11:42;;;;;;;5.55;2.05;;;;;;;;;;5073978;28;20020;-88
2023/09/26 11:14:07;;;;;;;5.57;3.05;;;;;;;;;;5064560;28;20555;-88
2023/09/26 11:16:33;;;;;;;5.95;1.98;;;;;;;;;;5067104;28;20059;-88
2023/09/26 11:18:58;;;;;;;7.53;2.75;;;;;;;;;;5056701;28;20049;-87
2023/09/26 11:21:23;;;;;;;2.38;1.45;;;;;;;;;;5069170;28;20494;-87
2023/09/26 11:23:48;;;;;;;3.90;1.90;;;;;;;;;;5071550;28;20106;-87
2023/09/26 11:26:16;;;;;;;3.75;1.65;;;;;;;;;;5071381;28;20031;-88
2023/09/26 11:28:41;;;;;;;4.72;2.00;;;;;;;;;;5072993;28;20047;-88
2023/09/26 11:31:07;;;;;;;5.60;2.03;;;;;;;;;;5072751;28;20024;-87
2023/09/26 11:33:34;;;;;;;6.90;2.00;;;;;;;;;;5064792;28;20021;-88
2023/09/26 11:36:03;;;;;;;5.30;2.10;;;;;;;;;;5074494;28;20349;-88
2023/09/26 11:38:30;;;;;;;6.78;2.10;;;;;;;;;;5069811;28;20020;-88
2023/09/26 11:40:55;;;;;;;5.07;2.00;;;;;;;;;;5064306;28;20024;-87
2023/09/26 11:43:20;;;;;;;6.45;2.20;;;;;;;;;;5072536;28;20024;-88
2023/09/26 11:45:46;;;;;;;4.65;1.75;;;;;;;;;;5072716;28;20064;-86
2023/09/26 11:48:11;;;;;;;3.05;1.83;;;;;;;;;;5064549;28;20025;-88
2023/09/26 11:50:36;;;;;;;4.93;1.90;;;;;;;;;;5070169;28;20032;-87
2023/09/26 11:53:02;;;;;;;5.30;1.85;;;;;;;;;;5072741;28;20035;-86
2023/09/26 11:55:35;;;;;;;7.70;1.95;;;;;;;;;;5073359;28;20025;-88
2023/09/26 11:58:00;;;;;;;4.72;1.90;;;;;;;;;;5070937;28;20025;-88
2023/09/26 12:00:26;;;;;;;3.92;1.67;;;;;;;;;;5067987;28;20020;-88
2023/09/26 12:02:52;;;;;;;3.72;1.80;;;;;;;;;;5060766;28;20447;-87
2023/09/26 12:05:21;;;;;;;6.22;1.98;;;;;;;;;;5064668;28;20021;-87
2023/09/26 12:07:47;;;;;;;2.92;1.92;;;;;;;;;;5068396;28;20079;-88
2023/09/26 12:10:13;;;;;;;4.07;1.42;;;;;;;;;;5056157;28;20024;-87
2023/09/26 12:12:41;;;;;;;3.95;1.80;;;;;;;;;;5074687;28;20020;-88
2023/09/26 12:15:22;;;;;;;3.80;1.65;;;;;;;;;;5074843;28;20025;-88
2023/09/26 12:17:56;;;;;;;3.28;1.73;;;;;;;;;;5073354;28;20032;-88
2023/09/26 12:20:24;;;;;;;2.47;1.60;;;;;;;;;;5064165;28;20431;-88
2023/09/26 12:22:50;;;;;;;5.63;1.63;;;;;;;;;;5068455;28;20438;-88
2023/09/26 12:25:15;;;;;;;3.83;1.65;;;;;;;;;;5068394;28;20104;-90
2023/09/26 12:27:40;;;;;;;2.50;1.52;;;;;;;;;;5062188;28;20046;-91
2023/09/26 12:30:06;;;;;;;4.13;1.67;;;;;;;;;;5063820;28;20027;-90
2023/09/26 12:32:32;;;;;;;6.95;1.67;;;;;;;;;;5059778;28;20021;-90
2023/09/26 12:34:57;;;;;;;4.55;2.00;;;;;;;;;;5071772;28;20012;-90
2023/09/26 12:37:23;;;;;;;3.70;1.95;;;;;;;;;;5067506;28;20448;-89
2023/09/26 12:39:48;;;;;;;2.17;1.30;;;;;;;;;;5067905;28;20130;-89
2023/09/26 12:42:13;;;;;;;5.70;1.83;;;;;;;;;;5059075;28;20019;-91
2023/09/26 12:44:40;;;;;;;5.25;1.92;;;;;;;;;;5072376;28;20020;-90
2023/09/26 12:47:06;;;;;;;8.20;1.80;;;;;;;;;;5072510;28;20070;-90
2023/09/26 12:49:31;;;;;;;4.00;1.70;;;;;;;;;;5056720;28;20128;-90
2023/09/26 12:51:57;;;;;;;5.57;1.70;;;;;;;;;;5067885;28;20107;-90
2023/09/26 12:54:23;;;;;;;5.28;2.00;;;;;;;;;;5068712;28;20055;-90
2023/09/26 12:56:49;;;;;;;3.08;1.50;;;;;;;;;;5072037;28;20043;-90
2023/09/26 12:59:14;;;;;;;4.53;1.40;;;;;;;;;;5072005;28;20108;-90
2023/09/26 13:01:39;;;;;;;2.35;1.30;;;;;;;;;;5072705;28;20440;-90
2023/09/26 13:04:05;;;;;;;3.97;1.55;;;;;;;;;;5058513;28;20221;-91
2023/09/26 13:06:30;;;;;;;2.65;1.27;;;;;;;;;;5066730;28;20021;-91
2023/09/26 13:08:55;;;;;;;2.42;1.10;;;;;;;;;;5067601;28;20021;-91
2023/09/26 13:11:21;;;;;;;2.72;1.48;;;;;;;;;;5066140;28;20021;-91
2023/09/26 13:13:46;;;;;;;4.80;1.80;;;;;;;;;;5066262;28;20104;-91
2023/09/26 13:16:13;;;;;;;6.97;1.83;;;;;;;;;;5058089;28;20021;-91
2023/09/26 13:18:38;;;;;;;3.25;1.60;;;;;;;;;;5072584;28;20030;-91
2023/09/26 13:21:03;;;;;;;4.63;1.38;;;;;;;;;;5070200;28;20025;-90
2023/09/26 13:23:29;;;;;;;3.33;1.77;;;;;;;;;;5074550;28;20080;-91
2023/09/26 13:25:56;;;;;;;3.05;1.83;;;;;;;;;;5067474;28;20082;-91
2023/09/26 13:28:22;;;;;;;4.00;1.52;;;;;;;;;;5071000;28;20115;-91
2023/09/26 13:30:47;;;;;;;3.47;1.23;;;;;;;;;;5068717;28;20048;-91
2023/09/26 13:33:14;;;;;;;2.25;1.55;;;;;;;;;;5074835;28;20379;-91
2023/09/26 13:35:41;;;;;;;5.80;1.63;;;;;;;;;;5072683;28;20028;-91
2023/09/26 13:38:06;;;;;;;6.07;1.65;;;;;;;;;;5059366;28;20021;-90
2023/09/26 13:40:31;;;;;;;4.05;1.80;;;;;;;;;;5072674;28;20021;-90
2023/09/26 13:42:56;;;;;;;4.03;1.80;;;;;;;;;;5072492;28;20107;-91
2023/09/26 13:45:22;;;;;;;4.70;1.52;;;;;;;;;;5059967;28;20055;-91
2023/09/26 13:47:47;;;;;;;3.55;1.58;;;;;;;;;;5072460;28;20012;-91
2023/09/26 13:50:12;;;;;;;3.60;1.45;;;;;;;;;;5068177;28;20086;-90
2023/09/26 13:52:38;;;;;;;2.42;1.50;;;;;;;;;;5073114;28;20017;-91
2023/09/26 13:55:03;;;;;;;3.22;1.40;;;;;;;;;;5071964;28;20048;-90
2023/09/26 13:57:28;;;;;;;3.20;1.40;;;;;;;;;;5057920;28;20047;-90
2023/09/26 13:59:54;;;;;;;2.88;1.20;;;;;;;;;;5071972;28;20024;-91
2023/09/26 14:02:19;;;;;;;1.80;1.27;;;;;;;;;;5072237;28;20017;-90
2023/09/26 14:04:45;;;;;;;3.40;1.02;;;;;;;;;;5063835;28;20021;-91
2023/09/26 14:07:10;;;;;;;6.65;1.10;;;;;;;;;;5073775;28;20086;-91
2023/09/26 14:09:38;;;;;;;3.78;1.50;;;;;;;;;;5060565;28;20104;-91
2023/09/26 14:12:06;;;;;;;2.97;1.25;;;;;;;;;;5056259;28;20028;-91
2023/09/26 14:14:32;;;;;;;4.68;1.42;;;;;;;;;;5069984;28;20067;-90
2023/09/26 14:16:57;;;;;;;3.35;1.38;;;;;;;;;;5068018;28;20452;-91
2023/09/26 14:19:25;;;;;;;2.70;1.20;;;;;;;;;;5074237;28;20027;-91
2023/09/26 14:21:50;;;;;;;4.25;1.63;;;;;;;;;;5075501;28;20425;-91
2023/09/26 14:24:17;;;;;;;4.88;1.35;;;;;;;;;;5076987;28;20020;-90
2023/09/26 14:26:43;;;;;;;4.07;1.42;;;;;;;;;;5070240;28;20546;-91
2023/09/26 14:29:11;;;;;;;2.28;1.40;;;;;;;;;;5063453;28;20028;-90
2023/09/26 14:31:36;;;;;;;2.58;1.40;;;;;;;;;;5058785;28;20029;-91
2023/09/26 14:34:02;;;;;;;3.20;1.52;;;;;;;;;;5068163;28;20092;-91
2023/09/26 14:36:30;;;;;;;5.80;1.40;;;;;;;;;;5077323;28;20324;-91
2023/09/26 14:38:55;;;;;;;2.13;1.17;;;;;;;;;;5076782;28;20037;-91